createdAt,value
2022-11-18T00:01:09.285Z,14.00
2022-11-18T00:04:12.381Z,32.60
2022-11-18T00:07:15.504Z,44.47
2022-11-18T00:10:19.059Z,27.77
2022-11-18T00:13:41.066Z,22.53
2022-11-18T00:16:44.264Z,23.13
2022-11-18T00:19:47.340Z,21.77
2022-11-18T00:22:50.443Z,20.87
2022-11-18T00:25:53.502Z,20.43
2022-11-18T00:28:57.927Z,20.03
2022-11-18T00:32:01.063Z,20.50
2022-11-18T00:35:04.204Z,20.90
2022-11-18T00:38:07.293Z,19.53
2022-11-18T00:41:12.022Z,22.07
2022-11-18T00:44:15.523Z,20.27
2022-11-18T00:47:18.703Z,19.10
2022-11-18T00:50:21.758Z,18.40
2022-11-18T00:53:26.292Z,19.87
2022-11-18T00:56:29.575Z,20.37
2022-11-18T00:59:34.084Z,21.30
2022-11-18T01:02:37.767Z,21.20
2022-11-18T01:05:41.513Z,20.43
2022-11-18T01:08:44.622Z,22.80
2022-11-18T01:12:01.594Z,21.33
2022-11-18T01:15:06.780Z,20.63
2022-11-18T01:18:10.132Z,21.43
2022-11-18T01:21:13.464Z,22.73
2022-11-18T01:24:17.471Z,22.50
2022-11-18T01:27:20.573Z,20.30
2022-11-18T01:30:25.220Z,21.53
2022-11-18T01:33:28.339Z,19.97
2022-11-18T01:36:31.636Z,19.27
2022-11-18T01:39:35.226Z,18.40
2022-11-18T01:42:38.374Z,20.70
2022-11-18T01:45:43.884Z,19.70
2022-11-18T01:48:49.996Z,18.60
2022-11-18T01:51:57.163Z,17.80
2022-11-18T01:55:06.260Z,19.03
2022-11-18T01:58:14.123Z,18.70
2022-11-18T02:01:18.727Z,17.37
2022-11-18T02:04:22.783Z,18.33
2022-11-18T02:07:26.592Z,17.70
2022-11-18T02:10:29.786Z,18.33
2022-11-18T02:13:33.788Z,17.83
2022-11-18T02:16:54.087Z,19.37
2022-11-18T02:20:28.270Z,18.30
2022-11-18T02:24:14.931Z,19.67
2022-11-18T02:27:53.191Z,16.97
2022-11-18T02:31:03.357Z,20.17
2022-11-18T02:34:15.528Z,18.83
2022-11-18T02:37:23.716Z,18.50
2022-11-18T02:40:30.974Z,17.77
2022-11-18T02:43:39.724Z,19.47
2022-11-18T02:46:48.548Z,18.77
2022-11-18T02:49:55.613Z,19.53
2022-11-18T02:53:01.777Z,17.77
2022-11-18T02:56:06.089Z,19.10
2022-11-18T02:59:09.236Z,21.30
2022-11-18T03:02:17.777Z,20.80
2022-11-18T03:05:27.164Z,21.00
2022-11-18T03:08:37.626Z,19.30
2022-11-18T03:11:49.584Z,20.50
2022-11-18T03:15:02.239Z,18.90
2022-11-18T03:18:17.670Z,20.17
2022-11-18T03:21:27.014Z,18.23
2022-11-18T03:24:33.156Z,19.23
2022-11-18T03:27:40.141Z,20.30
2022-11-18T03:30:49.521Z,18.33
2022-11-18T03:33:59.055Z,18.90
2022-11-18T03:37:10.037Z,19.53
2022-11-18T03:40:19.001Z,19.20
2022-11-18T03:43:25.582Z,20.10
2022-11-18T03:46:32.838Z,18.20
2022-11-18T03:49:42.192Z,19.80
2022-11-18T03:52:46.514Z,19.47
2022-11-18T03:55:54.814Z,17.37
2022-11-18T03:59:05.244Z,18.37
2022-11-18T04:02:13.995Z,17.77
2022-11-18T04:05:19.979Z,16.37
2022-11-18T04:08:28.098Z,15.27
2022-11-18T04:11:53.837Z,14.87
2022-11-18T04:14:56.985Z,13.73
2022-11-18T04:18:00.196Z,14.60
2022-11-18T04:21:04.720Z,14.07
2022-11-18T04:24:08.386Z,14.70
2022-11-18T04:27:11.524Z,14.10
2022-11-18T04:30:15.026Z,12.97
2022-11-18T04:33:18.093Z,14.40
2022-11-18T04:36:22.624Z,11.60
2022-11-18T04:39:25.812Z,12.10
2022-11-18T04:42:28.967Z,12.23
2022-11-18T04:45:32.037Z,12.80
2022-11-18T04:48:35.438Z,12.53
2022-11-18T04:51:40.140Z,11.77
2022-11-18T04:54:43.238Z,12.27
2022-11-18T04:57:46.347Z,12.10
2022-11-18T05:00:51.905Z,11.77
2022-11-18T05:03:55.152Z,11.10
2022-11-18T05:07:00.254Z,11.63
2022-11-18T05:10:03.405Z,11.33
2022-11-18T05:13:05.535Z,12.10
2022-11-18T05:16:08.870Z,10.23
2022-11-18T05:19:12.511Z,11.53
2022-11-18T05:22:17.761Z,12.40
2022-11-18T05:25:20.849Z,12.20
2022-11-18T05:28:23.961Z,12.10
2022-11-18T05:31:27.198Z,12.47
2022-11-18T05:34:30.296Z,12.13
2022-11-18T05:37:34.989Z,13.07
2022-11-18T05:40:38.089Z,14.93
2022-11-18T05:43:40.185Z,12.43
2022-11-18T05:46:43.310Z,14.37
2022-11-18T05:49:46.402Z,13.40
2022-11-18T05:52:50.917Z,14.40
2022-11-18T05:55:59.747Z,13.70
2022-11-18T05:59:02.896Z,13.83
2022-11-18T06:02:09.185Z,13.73
2022-11-18T06:05:14.005Z,14.27
2022-11-18T06:08:20.324Z,14.00
2022-11-18T06:11:23.518Z,14.00
2022-11-18T06:14:33.066Z,12.20
2022-11-18T06:17:40.795Z,11.90
2022-11-18T06:20:44.356Z,12.20
2022-11-18T06:23:48.936Z,12.23
2022-11-18T06:26:52.452Z,12.83
2022-11-18T06:29:55.550Z,13.70
2022-11-18T06:32:58.668Z,12.70
2022-11-18T06:36:01.777Z,14.57
2022-11-18T06:39:07.672Z,14.23
2022-11-18T06:42:10.803Z,13.67
2022-11-18T06:45:13.986Z,13.30
2022-11-18T06:48:17.169Z,13.77
2022-11-18T06:51:20.397Z,12.50
2022-11-18T06:54:24.839Z,12.07
2022-11-18T06:57:27.957Z,13.63
2022-11-18T07:00:31.122Z,13.53
2022-11-18T07:03:34.347Z,13.40
2022-11-18T07:06:38.050Z,14.00
2022-11-18T07:09:42.549Z,12.60
2022-11-18T07:12:45.694Z,14.20
2022-11-18T07:15:48.861Z,13.73
2022-11-18T07:18:53.766Z,12.67
2022-11-18T07:21:56.857Z,12.60
2022-11-18T07:25:01.351Z,11.73
2022-11-18T07:28:04.499Z,11.37
2022-11-18T07:31:09.397Z,11.73
2022-11-18T07:34:14.334Z,11.83
2022-11-18T07:37:18.345Z,11.33
2022-11-18T07:40:22.790Z,11.87
2022-11-18T07:43:26.084Z,12.27
2022-11-18T07:46:31.230Z,14.37
2022-11-18T07:49:34.352Z,10.97
2022-11-18T07:52:37.455Z,10.67
2022-11-18T07:55:42.027Z,10.53
2022-11-18T07:58:46.064Z,11.93
2022-11-18T08:01:49.233Z,10.73
2022-11-18T08:04:52.401Z,10.40
2022-11-18T08:07:55.515Z,10.63
2022-11-18T08:11:01.484Z,10.60
2022-11-18T08:14:04.952Z,9.40
2022-11-18T08:17:08.094Z,10.07
2022-11-18T08:20:12.572Z,9.20
2022-11-18T08:23:16.287Z,9.80
2022-11-18T08:26:20.946Z,11.33
2022-11-18T08:29:25.576Z,10.33
2022-11-18T08:32:29.497Z,9.00
2022-11-18T08:35:34.079Z,10.70
2022-11-18T08:38:37.332Z,9.00
2022-11-18T08:41:43.822Z,9.27
2022-11-18T08:44:46.939Z,7.60
2022-11-18T08:47:50.068Z,8.43
2022-11-18T08:50:53.705Z,10.07
2022-11-18T08:53:56.895Z,8.83
2022-11-18T08:57:01.551Z,9.20
2022-11-18T09:00:05.454Z,10.30
2022-11-18T09:03:08.621Z,9.37
2022-11-18T09:06:13.373Z,10.57
2022-11-18T09:09:17.143Z,9.73
2022-11-18T09:12:21.675Z,8.60
2022-11-18T09:15:26.350Z,8.23
2022-11-18T09:18:30.106Z,8.97
2022-11-18T09:21:36.836Z,8.27
2022-11-18T09:24:43.636Z,9.10
2022-11-18T09:27:48.713Z,10.07
2022-11-18T09:30:51.915Z,8.77
2022-11-18T09:33:55.092Z,8.03
2022-11-18T09:36:58.237Z,8.70
2022-11-18T09:40:01.349Z,9.50
2022-11-18T09:43:15.333Z,9.23
2022-11-18T09:46:25.920Z,8.50
2022-11-18T09:49:32.832Z,9.00
2022-11-18T09:52:41.999Z,10.53
2022-11-18T09:55:46.022Z,8.97
2022-11-18T09:58:50.948Z,9.83
2022-11-18T10:01:56.881Z,10.13
2022-11-18T10:05:09.594Z,11.33
2022-11-18T10:08:22.339Z,10.40
2022-11-18T10:11:27.672Z,10.50
2022-11-18T10:14:47.281Z,9.40
2022-11-18T10:17:57.795Z,9.37
2022-11-18T10:21:06.938Z,10.93
2022-11-18T10:24:14.579Z,10.30
2022-11-18T10:27:19.221Z,10.00
2022-11-18T10:30:25.826Z,11.20
2022-11-18T10:33:30.850Z,9.57
2022-11-18T10:36:35.507Z,10.27
2022-11-18T10:39:51.570Z,10.63
2022-11-18T10:42:54.709Z,10.23
2022-11-18T10:46:16.364Z,12.30
2022-11-18T10:49:19.478Z,11.80
2022-11-18T10:52:23.046Z,11.90
2022-11-18T10:55:26.792Z,12.90
2022-11-18T10:58:32.354Z,13.40
2022-11-18T11:01:36.917Z,13.63
2022-11-18T11:04:41.863Z,14.20
2022-11-18T11:07:45.360Z,14.77
2022-11-18T11:10:56.910Z,13.77
2022-11-18T11:14:07.524Z,12.00
2022-11-18T11:17:15.331Z,12.97
2022-11-18T11:20:22.606Z,13.40
2022-11-18T11:23:26.850Z,12.50
2022-11-18T11:30:14.119Z,12.43
2022-11-18T11:33:31.148Z,13.67
2022-11-18T11:36:42.989Z,14.27
2022-11-18T11:40:08.427Z,15.73
2022-11-18T11:43:27.595Z,15.40
2022-11-18T11:46:41.385Z,16.00
2022-11-18T11:49:54.643Z,16.40
2022-11-18T11:53:16.010Z,16.20
2022-11-18T11:56:24.696Z,15.53
2022-11-18T11:59:33.738Z,14.53
2022-11-18T12:03:02.243Z,15.60
2022-11-18T12:06:09.053Z,14.67
2022-11-18T12:09:20.075Z,15.07
2022-11-18T12:12:35.964Z,16.37
2022-11-18T12:15:54.536Z,17.37
2022-11-18T12:19:01.129Z,15.00
2022-11-18T12:22:06.526Z,15.97
2022-11-18T12:26:00.381Z,15.93
2022-11-18T12:29:24.139Z,15.77
2022-11-18T12:32:30.622Z,16.20
2022-11-18T12:35:34.171Z,15.77
2022-11-18T12:38:38.678Z,16.80
2022-11-18T12:42:13.169Z,15.00
2022-11-18T12:45:58.431Z,16.10
2022-11-18T12:49:42.416Z,15.37
2022-11-18T12:52:54.052Z,15.83
2022-11-18T12:55:59.473Z,15.80
2022-11-18T12:59:03.319Z,17.43
2022-11-18T13:02:17.164Z,17.10
2022-11-18T13:05:22.326Z,16.27
2022-11-18T13:08:25.513Z,15.40
2022-11-18T13:11:46.625Z,16.93
2022-11-18T13:15:07.829Z,17.40
2022-11-18T13:18:16.530Z,17.40
2022-11-18T13:21:45.616Z,16.47
2022-11-18T13:24:50.582Z,16.60
2022-11-18T13:28:04.635Z,16.33
2022-11-18T13:31:16.362Z,16.50
2022-11-18T13:34:22.432Z,17.47
2022-11-18T13:37:28.057Z,15.40
2022-11-18T13:40:33.346Z,16.60
2022-11-18T13:43:38.295Z,16.53
2022-11-18T13:46:43.017Z,17.17
2022-11-18T13:49:52.303Z,16.70
2022-11-18T13:53:08.827Z,15.90
2022-11-18T13:56:20.239Z,16.33
2022-11-18T13:59:25.955Z,14.90
2022-11-18T14:02:29.223Z,15.03
2022-11-18T14:05:32.389Z,15.63
2022-11-18T14:08:37.007Z,14.00
2022-11-18T14:11:42.714Z,15.30
2022-11-18T14:14:47.826Z,12.80
2022-11-18T14:17:54.144Z,17.27
2022-11-18T14:20:57.384Z,25.17
2022-11-18T14:24:01.066Z,16.40
2022-11-18T14:27:37.504Z,14.83
2022-11-18T14:30:43.153Z,14.10
2022-11-18T14:34:06.358Z,11.53
2022-11-18T14:37:13.856Z,12.67
2022-11-18T14:40:17.926Z,11.73
2022-11-18T14:43:21.036Z,11.87
2022-11-18T14:46:25.962Z,11.60
2022-11-18T14:49:31.639Z,12.53
2022-11-18T14:52:34.811Z,13.37
2022-11-18T14:55:37.958Z,12.33
2022-11-18T14:58:41.072Z,13.10
2022-11-18T15:01:46.200Z,12.90
2022-11-18T15:04:50.757Z,12.80
2022-11-18T15:07:54.009Z,13.53
2022-11-18T15:10:57.199Z,13.43
2022-11-18T15:14:00.318Z,14.03
2022-11-18T15:17:05.490Z,14.40
2022-11-18T15:20:11.850Z,15.83
2022-11-18T15:23:14.943Z,16.30
2022-11-18T15:26:21.578Z,15.60
2022-11-18T15:29:26.251Z,15.60
2022-11-18T15:32:30.873Z,20.20
2022-11-18T15:35:33.951Z,17.20
2022-11-18T15:38:37.322Z,16.93
2022-11-18T15:41:42.972Z,16.43
2022-11-18T15:44:46.216Z,19.73
2022-11-18T15:47:53.211Z,17.50
2022-11-18T15:50:56.555Z,18.60
2022-11-18T15:53:59.692Z,18.40
2022-11-18T15:57:02.818Z,18.13
2022-11-18T16:00:06.584Z,18.93
2022-11-18T16:03:11.558Z,20.10
2022-11-18T16:06:14.892Z,24.70
2022-11-18T16:09:19.021Z,39.83
2022-11-18T16:12:39.877Z,33.30
2022-11-18T16:15:48.226Z,29.20
2022-11-18T16:18:55.327Z,31.03
2022-11-18T16:21:58.508Z,25.50
2022-11-18T16:25:01.629Z,25.57
2022-11-18T16:28:07.585Z,27.33
2022-11-18T16:31:28.428Z,30.13
2022-11-18T16:34:33.297Z,34.17
2022-11-18T16:37:36.593Z,25.70
2022-11-18T16:40:40.085Z,34.33
2022-11-18T16:43:43.413Z,24.03
2022-11-18T16:46:49.554Z,45.67
2022-11-18T16:49:54.202Z,28.17
2022-11-18T16:52:58.424Z,28.80
2022-11-18T16:56:04.369Z,21.37
2022-11-18T16:59:12.763Z,19.57
2022-11-18T17:02:20.518Z,38.80
2022-11-18T17:05:25.168Z,28.03
2022-11-18T17:08:28.599Z,18.40
2022-11-18T17:11:32.553Z,18.30
2022-11-18T17:14:38.676Z,20.60
2022-11-18T17:21:08.298Z,18.43
2022-11-18T17:24:14.927Z,19.60
2022-11-18T17:27:18.048Z,18.57
2022-11-18T17:30:21.272Z,19.23
2022-11-18T17:33:25.104Z,19.80
2022-11-18T17:36:30.985Z,20.20
2022-11-18T17:39:34.147Z,21.10
2022-11-18T17:42:37.633Z,20.80
2022-11-18T17:45:42.268Z,21.00
2022-11-18T17:48:45.549Z,20.73
2022-11-18T17:51:51.775Z,24.00
2022-11-18T17:54:55.157Z,24.67
2022-11-18T17:57:58.359Z,24.47
2022-11-18T18:01:09.389Z,26.23
2022-11-18T18:04:20.364Z,27.90
2022-11-18T18:07:25.440Z,26.27
2022-11-18T18:10:28.955Z,24.80
2022-11-18T18:13:50.345Z,23.30
2022-11-18T18:16:54.002Z,23.70
2022-11-18T18:19:58.071Z,23.87
2022-11-18T18:23:03.570Z,22.77
2022-11-18T18:26:09.703Z,23.40
2022-11-18T18:29:13.937Z,23.33
2022-11-18T18:32:17.731Z,23.97
2022-11-18T18:35:24.958Z,22.83
2022-11-18T18:38:32.955Z,24.87
2022-11-18T18:41:38.697Z,24.40
2022-11-18T18:44:59.573Z,24.90
2022-11-18T18:48:05.879Z,24.70
2022-11-18T18:51:10.913Z,24.50
2022-11-18T18:54:18.336Z,24.07
2022-11-18T18:57:22.769Z,27.87
2022-11-18T19:00:27.154Z,25.60
2022-11-18T19:03:31.191Z,28.40
2022-11-18T19:10:05.816Z,24.23
2022-11-18T19:13:09.423Z,26.77
2022-11-18T19:16:16.277Z,27.37
2022-11-18T19:19:41.915Z,25.80
2022-11-18T19:22:45.977Z,23.33
2022-11-18T19:25:51.755Z,24.77
2022-11-18T19:28:55.621Z,23.60
2022-11-18T19:31:59.815Z,22.07
2022-11-18T19:35:03.367Z,23.33
2022-11-18T19:38:09.240Z,23.40
2022-11-18T19:41:15.825Z,22.03
2022-11-18T19:44:19.313Z,21.80
2022-11-18T19:47:23.582Z,24.37
2022-11-18T19:50:28.166Z,21.03
2022-11-18T19:53:36.653Z,23.33
2022-11-18T19:56:42.596Z,23.10
2022-11-18T19:59:47.441Z,22.33
2022-11-18T20:02:51.878Z,23.50
2022-11-18T20:05:55.567Z,22.87
2022-11-18T20:09:00.446Z,22.23
2022-11-18T20:12:06.435Z,24.23
2022-11-18T20:15:11.861Z,22.53
2022-11-18T20:18:15.996Z,23.70
2022-11-18T20:21:22.691Z,23.27
2022-11-18T20:24:27.803Z,22.33
2022-11-18T20:27:33.170Z,23.30
2022-11-18T20:30:37.922Z,22.77
2022-11-18T20:33:44.435Z,26.03
2022-11-18T20:36:51.999Z,23.20
2022-11-18T20:39:55.880Z,21.10
2022-11-18T20:43:13.957Z,21.77
2022-11-18T20:46:20.763Z,20.53
2022-11-18T20:49:27.211Z,20.77
2022-11-18T20:52:30.879Z,21.33
2022-11-18T20:55:39.894Z,21.00
2022-11-18T20:58:45.428Z,19.87
2022-11-18T21:01:49.728Z,20.30
2022-11-18T21:04:52.983Z,21.43
2022-11-18T21:07:56.210Z,21.80
2022-11-18T21:11:03.553Z,21.27
2022-11-18T21:14:24.916Z,22.43
2022-11-18T21:17:29.250Z,21.80
2022-11-18T21:20:50.457Z,22.20
2022-11-18T21:23:55.462Z,22.67
2022-11-18T21:27:00.329Z,21.57
2022-11-18T21:30:05.475Z,25.90
2022-11-18T21:33:08.973Z,23.03
2022-11-18T21:36:12.826Z,22.37
2022-11-18T21:39:16.617Z,22.80
2022-11-18T21:42:20.146Z,22.97
2022-11-18T21:45:24.744Z,21.57
2022-11-18T21:48:27.939Z,17.43
2022-11-18T21:51:32.239Z,21.77
2022-11-18T21:54:36.817Z,57.60
2022-11-18T21:57:42.617Z,23.93
2022-11-18T22:00:47.233Z,19.90
2022-11-18T22:03:55.320Z,22.33
2022-11-18T22:06:59.024Z,17.50
2022-11-18T22:10:02.233Z,15.53
2022-11-18T22:13:07.053Z,22.40
2022-11-18T22:16:12.865Z,30.90
2022-11-18T22:19:15.952Z,26.50
2022-11-18T22:22:19.071Z,23.57
2022-11-18T22:25:22.152Z,18.73
2022-11-18T22:28:25.581Z,35.40
2022-11-18T22:31:30.252Z,20.03
2022-11-18T22:34:33.673Z,38.60
2022-11-18T22:37:36.770Z,24.73
2022-11-18T22:40:39.861Z,17.57
2022-11-18T22:43:41.964Z,17.50
2022-11-18T22:46:47.075Z,15.77
2022-11-18T22:49:54.980Z,24.93
2022-11-18T22:52:59.353Z,17.13
2022-11-18T22:56:03.986Z,16.77
2022-11-18T22:59:07.128Z,17.60
2022-11-18T23:02:11.649Z,46.00
2022-11-18T23:05:14.843Z,15.57
2022-11-18T23:08:17.977Z,13.97
2022-11-18T23:11:35.669Z,15.63
2022-11-18T23:14:38.804Z,20.77
2022-11-18T23:17:43.286Z,15.60
2022-11-18T23:20:46.509Z,13.97
2022-11-18T23:23:49.638Z,28.87
2022-11-18T23:26:52.731Z,30.20
2022-11-18T23:29:55.850Z,19.13
2022-11-18T23:33:00.471Z,15.80
2022-11-18T23:36:04.641Z,14.30
2022-11-18T23:39:08.017Z,14.67
2022-11-18T23:42:11.114Z,16.13
2022-11-18T23:45:14.321Z,14.77
2022-11-18T23:48:19.206Z,13.77
2022-11-18T23:51:23.936Z,15.03
2022-11-18T23:54:27.040Z,13.70
2022-11-18T23:57:30.175Z,13.90
